Main page
METAR-TAF:

METAR-TAF

Airports :

Cavern City Air Terminal

Carlsbad, New Mexico, United States

latitude: 32-20-15N, longitude: 104-15-48W, elevation: 3293 ft

Current weather observation

The report was made 53 minutes ago, at 08:53 UTC
Wind 5 mph from the Northeast
Temperature 54°F
Humidity 47%
Pressure 30.18 in. Hg
Visibility: 10 miles
Clear sky

METAR: KCNM 190853Z AUTO 04004KT 10SM CLR 12/01 A3018 RMK AO2 SLP182 T01220006 51031

Time: 03:46 (09:46 UTC)

Forecast

The report was made 4 hours and 26 minutes ago, at 05:20 UTC
Forecast valid from 19 at 06 UTC to 20 at 06 UTC
Wind 9 mph from the North
Visibility: 6 miles
Clear sky
From 19 at 1600 UTC
Wind 10 mph from the South/Southeast
Visibility: 6 miles
Clear sky

TAF: KCNM 190520Z 1906/2006 35008KT P6SM SKC FM191600 15009KT P6SM SKC

Weather observations and forecasts of more than 4000 airports (METAR and TAF reports).

The available stations are represented by yellow and red dots on the map.

Hover mouse over dot to see the name of the station.

Then click to see weather observations and forecasts.

To change the map : click on the green buttons with a black cross to zoom in, on the green button with a dash to zoom out, or on the green arrows for adjacent maps.


METAR-TAF: